createdAt,value
2023-06-28T00:01:18.711Z,1.70
2023-06-28T00:03:46.218Z,1.30
2023-06-28T00:06:13.412Z,1.83
2023-06-28T00:08:41.779Z,1.60
2023-06-28T00:11:12.264Z,1.83
2023-06-28T00:13:39.300Z,1.98
2023-06-28T00:16:06.561Z,1.98
2023-06-28T00:18:34.353Z,1.48
2023-06-28T00:21:04.241Z,1.50
2023-06-28T00:23:33.942Z,1.90
2023-06-28T00:26:01.267Z,2.72
2023-06-28T00:28:28.799Z,1.90
2023-06-28T00:30:56.268Z,1.50
2023-06-28T00:33:25.268Z,1.80
2023-06-28T00:35:52.391Z,1.80
2023-06-28T00:38:19.445Z,1.70
2023-06-28T00:40:47.109Z,2.10
2023-06-28T00:43:14.289Z,1.67
2023-06-28T00:45:41.357Z,2.05
2023-06-28T00:48:10.555Z,1.65
2023-06-28T00:50:38.763Z,1.90
2023-06-28T00:53:06.396Z,2.17
2023-06-28T00:55:33.666Z,1.88
2023-06-28T00:58:02.532Z,1.70
2023-06-28T01:00:29.774Z,1.73
2023-06-28T01:02:57.367Z,2.05
2023-06-28T01:05:24.762Z,2.65
2023-06-28T01:07:54.753Z,2.05
2023-06-28T01:10:22.468Z,2.30
2023-06-28T01:12:50.254Z,2.03
2023-06-28T01:15:17.989Z,2.30
2023-06-28T01:17:45.047Z,2.10
2023-06-28T01:20:12.452Z,2.53
2023-06-28T01:22:44.990Z,2.00
2023-06-28T01:25:12.689Z,2.10
2023-06-28T01:27:45.524Z,2.00
2023-06-28T01:30:15.986Z,2.38
2023-06-28T01:32:46.838Z,2.15
2023-06-28T01:35:15.960Z,1.77
2023-06-28T01:37:44.421Z,2.08
2023-06-28T01:40:13.648Z,1.77
2023-06-28T01:42:42.384Z,2.03
2023-06-28T01:45:10.449Z,2.10
2023-06-28T01:47:37.957Z,1.88
2023-06-28T01:50:08.227Z,1.85
2023-06-28T01:52:36.364Z,1.88
2023-06-28T01:55:04.666Z,2.15
2023-06-28T01:57:31.850Z,1.80
2023-06-28T01:59:59.008Z,2.05
2023-06-28T02:02:26.102Z,2.30
2023-06-28T02:04:53.261Z,1.52
2023-06-28T02:07:20.296Z,2.30
2023-06-28T02:09:47.440Z,2.25
2023-06-28T02:12:14.496Z,2.45
2023-06-28T02:14:41.780Z,2.28
2023-06-28T02:17:15.581Z,2.35
2023-06-28T02:19:43.137Z,2.20
2023-06-28T02:22:10.551Z,1.85
2023-06-28T02:24:37.702Z,1.70
2023-06-28T02:27:05.866Z,1.80
2023-06-28T02:29:33.391Z,2.10
2023-06-28T02:32:01.183Z,1.90
2023-06-28T02:34:28.951Z,2.03
2023-06-28T02:36:56.349Z,1.80
2023-06-28T02:39:23.952Z,1.90
2023-06-28T02:41:51.508Z,2.05
2023-06-28T02:44:18.808Z,2.17
2023-06-28T02:46:47.588Z,1.83
2023-06-28T02:49:15.125Z,1.80
2023-06-28T02:51:42.474Z,1.80
2023-06-28T02:54:14.141Z,2.00
2023-06-28T02:56:41.257Z,2.10
2023-06-28T02:59:14.301Z,1.90
2023-06-28T03:01:42.511Z,1.77
2023-06-28T03:04:09.765Z,1.65
2023-06-28T03:06:37.169Z,2.03
2023-06-28T03:09:04.630Z,1.70
2023-06-28T03:11:31.705Z,2.15
2023-06-28T03:13:59.030Z,1.83
2023-06-28T03:16:26.139Z,1.88
2023-06-28T03:18:53.129Z,1.92
2023-06-28T03:21:20.279Z,1.70
2023-06-28T03:23:47.346Z,1.52
2023-06-28T03:26:14.451Z,1.95
2023-06-28T03:28:42.328Z,2.05
2023-06-28T03:31:09.820Z,2.05
2023-06-28T03:33:37.068Z,2.17
2023-06-28T03:36:06.474Z,2.03
2023-06-28T03:38:33.809Z,2.50
2023-06-28T03:41:00.925Z,2.10
2023-06-28T03:43:28.169Z,2.42
2023-06-28T03:45:55.522Z,1.80
2023-06-28T03:48:23.926Z,1.65
2023-06-28T03:50:50.921Z,2.10
2023-06-28T03:53:18.005Z,2.30
2023-06-28T03:55:45.151Z,1.95
2023-06-28T03:58:13.137Z,2.05
2023-06-28T04:00:40.631Z,1.95
2023-06-28T04:03:08.026Z,1.95
2023-06-28T04:05:35.059Z,1.85
2023-06-28T04:08:03.492Z,1.92
2023-06-28T04:10:31.182Z,1.48
2023-06-28T04:12:58.340Z,1.60
2023-06-28T04:15:25.608Z,1.83
2023-06-28T04:17:53.118Z,2.50
2023-06-28T04:20:20.762Z,2.63
2023-06-28T04:22:48.033Z,1.80
2023-06-28T04:25:15.375Z,2.10
2023-06-28T04:27:42.870Z,1.77
2023-06-28T04:30:10.627Z,1.85
2023-06-28T04:32:37.972Z,2.00
2023-06-28T04:35:06.673Z,1.88
2023-06-28T04:37:34.105Z,2.05
2023-06-28T04:40:04.883Z,1.80
2023-06-28T04:42:32.367Z,2.10
2023-06-28T04:45:00.883Z,1.73
2023-06-28T04:47:29.354Z,2.00
2023-06-28T04:49:56.673Z,1.90
2023-06-28T04:52:24.649Z,1.80
2023-06-28T04:54:52.004Z,2.28
2023-06-28T04:57:21.973Z,1.92
2023-06-28T04:59:50.064Z,1.90
2023-06-28T05:02:17.510Z,1.35
2023-06-28T05:04:44.654Z,1.67
2023-06-28T05:07:12.377Z,1.90
2023-06-28T05:09:42.276Z,1.70
2023-06-28T05:12:09.386Z,1.80
2023-06-28T05:14:36.374Z,2.13
2023-06-28T05:17:03.628Z,1.95
2023-06-28T05:19:30.723Z,2.00
2023-06-28T05:21:57.751Z,1.98
2023-06-28T05:24:24.833Z,1.98
2023-06-28T05:26:51.936Z,1.80
2023-06-28T05:29:20.736Z,2.60
2023-06-28T05:31:47.971Z,1.80
2023-06-28T05:34:15.150Z,1.90
2023-06-28T05:36:43.045Z,1.73
2023-06-28T05:39:12.914Z,1.75
2023-06-28T05:41:41.303Z,2.20
2023-06-28T05:44:08.723Z,1.80
2023-06-28T05:46:36.089Z,2.15
2023-06-28T05:49:09.651Z,1.60
2023-06-28T05:51:37.953Z,1.77
2023-06-28T05:54:06.317Z,1.77
2023-06-28T05:56:33.878Z,1.70
2023-06-28T05:59:00.949Z,1.60
2023-06-28T06:01:30.241Z,1.70
2023-06-28T06:03:57.451Z,1.85
2023-06-28T06:06:24.532Z,2.00
2023-06-28T06:08:51.600Z,1.88
2023-06-28T06:11:18.779Z,2.00
2023-06-28T06:13:45.994Z,2.50
2023-06-28T06:16:13.350Z,2.45
2023-06-28T06:18:42.276Z,2.10
2023-06-28T06:21:09.629Z,2.00
2023-06-28T06:23:36.849Z,2.58
2023-06-28T06:26:03.828Z,2.10
2023-06-28T06:28:30.937Z,2.10
2023-06-28T06:30:57.968Z,1.70
2023-06-28T06:33:25.026Z,1.50
2023-06-28T06:35:55.035Z,1.90
2023-06-28T06:38:23.620Z,1.40
2023-06-28T06:40:51.007Z,1.73
2023-06-28T06:43:18.310Z,2.03
2023-06-28T06:45:45.326Z,1.73
2023-06-28T06:48:12.775Z,1.98
2023-06-28T06:50:40.256Z,1.90
2023-06-28T06:53:08.293Z,1.70
2023-06-28T06:55:35.404Z,1.77
2023-06-28T06:58:02.738Z,1.60
2023-06-28T07:00:30.467Z,2.92
2023-06-28T07:02:57.790Z,1.88
2023-06-28T07:05:24.944Z,1.92
2023-06-28T07:07:52.422Z,2.72
2023-06-28T07:10:19.798Z,1.65
2023-06-28T07:12:47.183Z,1.92
2023-06-28T07:15:14.966Z,1.60
2023-06-28T07:17:42.350Z,1.75
2023-06-28T07:20:10.368Z,1.77
2023-06-28T07:22:37.924Z,1.80
2023-06-28T07:25:05.874Z,1.52
2023-06-28T07:27:33.096Z,1.40
2023-06-28T07:30:00.773Z,1.40
2023-06-28T07:32:28.253Z,1.42
2023-06-28T07:34:56.696Z,1.38
2023-06-28T07:37:24.382Z,1.25
2023-06-28T07:39:51.629Z,1.85
2023-06-28T07:42:20.815Z,1.63
2023-06-28T07:44:47.957Z,1.20
2023-06-28T07:47:15.240Z,1.33
2023-06-28T07:49:42.907Z,1.30
2023-06-28T07:52:10.481Z,1.33
2023-06-28T07:54:37.982Z,1.35
2023-06-28T07:57:05.582Z,1.50
2023-06-28T07:59:32.769Z,1.30
2023-06-28T08:01:59.867Z,1.25
2023-06-28T08:04:26.971Z,1.33
2023-06-28T08:06:54.129Z,1.88
2023-06-28T08:09:21.333Z,1.67
2023-06-28T08:11:49.103Z,1.20
2023-06-28T08:14:16.397Z,1.40
2023-06-28T08:16:43.593Z,1.30
2023-06-28T08:19:14.370Z,1.45
2023-06-28T08:21:41.948Z,1.35
2023-06-28T08:24:09.406Z,1.17
2023-06-28T08:26:42.151Z,1.35
2023-06-28T08:29:10.447Z,1.20
2023-06-28T08:31:38.077Z,1.17
2023-06-28T08:34:07.946Z,1.50
2023-06-28T08:36:35.271Z,1.50
2023-06-28T08:39:02.373Z,1.20
2023-06-28T08:41:31.996Z,1.00
2023-06-28T08:44:02.540Z,1.65
2023-06-28T08:46:32.297Z,1.50
2023-06-28T08:49:02.227Z,1.40
2023-06-28T08:51:29.644Z,1.33
2023-06-28T08:53:57.988Z,1.15
2023-06-28T08:56:26.555Z,1.80
2023-06-28T08:58:54.483Z,1.30
2023-06-28T09:01:25.684Z,1.35
2023-06-28T09:03:54.181Z,1.55
2023-06-28T09:06:23.396Z,1.55
2023-06-28T09:08:52.169Z,1.10
2023-06-28T09:11:19.611Z,1.40
2023-06-28T09:13:47.382Z,1.42
2023-06-28T09:16:14.902Z,1.40
2023-06-28T09:18:42.023Z,1.45
2023-06-28T09:21:09.268Z,1.27
2023-06-28T09:23:37.052Z,1.10
2023-06-28T09:26:04.930Z,1.40
2023-06-28T09:28:37.416Z,1.33
2023-06-28T09:31:08.444Z,1.35
2023-06-28T09:33:36.316Z,1.15
2023-06-28T09:36:04.407Z,1.30
2023-06-28T09:38:31.848Z,1.48
2023-06-28T09:41:00.658Z,2.05
2023-06-28T09:43:35.931Z,1.40
2023-06-28T09:46:18.364Z,1.30
2023-06-28T09:48:52.624Z,1.20
2023-06-28T09:51:20.569Z,1.42
2023-06-28T09:53:55.738Z,1.50
2023-06-28T09:56:39.969Z,1.20
2023-06-28T09:59:12.678Z,1.30
2023-06-28T10:01:45.652Z,1.40
2023-06-28T10:04:17.975Z,1.40
2023-06-28T10:06:45.989Z,1.17
2023-06-28T10:09:19.099Z,1.15
2023-06-28T10:11:48.869Z,1.30
2023-06-28T10:14:18.997Z,1.23
2023-06-28T10:16:47.129Z,1.20
2023-06-28T10:19:15.331Z,1.20
2023-06-28T10:21:43.304Z,1.08
2023-06-28T10:24:12.170Z,0.90
2023-06-28T10:26:39.772Z,1.13
2023-06-28T10:29:08.232Z,1.10
2023-06-28T10:31:35.794Z,1.55
2023-06-28T10:34:05.165Z,1.40
2023-06-28T10:36:32.532Z,1.33
2023-06-28T10:39:00.289Z,1.30
2023-06-28T10:41:28.219Z,1.20
2023-06-28T10:44:07.037Z,1.15
2023-06-28T10:46:35.330Z,1.10
2023-06-28T10:49:04.522Z,1.30
2023-06-28T10:51:36.670Z,1.00
2023-06-28T10:54:10.563Z,1.10
2023-06-28T10:56:44.402Z,1.30
2023-06-28T10:59:11.603Z,1.08
2023-06-28T11:01:51.080Z,1.30
2023-06-28T11:04:22.648Z,1.10
2023-06-28T11:07:11.479Z,0.88
2023-06-28T11:09:38.648Z,1.10
2023-06-28T11:12:09.241Z,1.13
2023-06-28T11:14:37.341Z,1.00
2023-06-28T11:17:14.749Z,1.20
2023-06-28T11:19:46.424Z,1.30
2023-06-28T11:22:13.775Z,1.00
2023-06-28T11:24:41.029Z,1.02
2023-06-28T11:27:13.540Z,1.20
2023-06-28T11:29:59.166Z,1.50
2023-06-28T11:32:33.712Z,1.45
2023-06-28T11:35:02.836Z,1.00
2023-06-28T11:37:31.522Z,1.10
2023-06-28T11:40:02.338Z,1.00
2023-06-28T11:42:29.707Z,1.17
2023-06-28T11:44:57.365Z,1.08
2023-06-28T11:47:28.467Z,1.50
2023-06-28T11:49:57.550Z,1.00
2023-06-28T11:52:25.786Z,1.17
2023-06-28T11:54:55.475Z,1.40
2023-06-28T11:57:22.714Z,1.00
2023-06-28T11:59:54.165Z,1.10
2023-06-28T12:02:23.355Z,1.20
2023-06-28T12:05:04.191Z,1.17
2023-06-28T12:07:33.111Z,1.52
2023-06-28T12:10:00.915Z,1.52
2023-06-28T12:12:35.841Z,1.10
2023-06-28T12:15:06.341Z,1.23
2023-06-28T12:17:45.473Z,1.30
2023-06-28T12:20:13.785Z,1.13
2023-06-28T12:22:44.586Z,1.30
2023-06-28T12:25:12.567Z,1.20
2023-06-28T12:27:43.419Z,1.30
2023-06-28T12:30:13.956Z,0.93
2023-06-28T12:32:48.551Z,1.35
2023-06-28T12:35:24.669Z,1.15
2023-06-28T12:40:33.055Z,1.55
2023-06-28T12:43:15.103Z,1.30
2023-06-28T12:45:48.271Z,1.10
2023-06-28T12:48:17.820Z,1.10
2023-06-28T12:50:52.441Z,0.98
2023-06-28T12:53:20.949Z,1.10
2023-06-28T12:55:48.119Z,1.20
2023-06-28T12:58:15.864Z,1.38
2023-06-28T13:00:46.578Z,1.20
2023-06-28T13:03:15.596Z,0.98
2023-06-28T13:05:43.740Z,1.10
2023-06-28T13:08:13.072Z,1.25
2023-06-28T13:10:40.485Z,1.35
2023-06-28T13:13:08.056Z,1.30
2023-06-28T13:15:35.836Z,1.40
2023-06-28T13:18:03.999Z,1.17
2023-06-28T13:20:31.110Z,1.05
2023-06-28T13:22:58.749Z,1.45
2023-06-28T13:25:27.626Z,1.25
2023-06-28T13:27:55.224Z,1.00
2023-06-28T13:30:22.905Z,1.02
2023-06-28T13:32:51.438Z,1.50
2023-06-28T13:35:19.221Z,1.00
2023-06-28T13:37:49.659Z,1.20
2023-06-28T13:40:19.349Z,0.85
2023-06-28T13:42:47.589Z,1.25
2023-06-28T13:45:15.325Z,1.00
2023-06-28T13:47:43.334Z,1.30
2023-06-28T13:50:11.055Z,1.35
2023-06-28T13:52:38.738Z,1.45
2023-06-28T13:55:06.459Z,1.55
2023-06-28T13:57:33.933Z,1.15
2023-06-28T14:00:01.856Z,1.23
2023-06-28T14:02:29.490Z,1.48
2023-06-28T14:04:56.970Z,1.38
2023-06-28T14:07:24.278Z,2.20
2023-06-28T14:09:51.774Z,6.68
2023-06-28T14:12:19.000Z,2.20
2023-06-28T14:14:46.279Z,1.35
2023-06-28T14:17:14.170Z,1.35
2023-06-28T14:19:44.166Z,1.10
2023-06-28T14:22:11.893Z,1.20
2023-06-28T14:24:41.616Z,1.40
2023-06-28T14:27:09.267Z,1.25
2023-06-28T14:29:36.413Z,1.05
2023-06-28T14:32:04.392Z,1.23
2023-06-28T14:34:31.553Z,1.00
2023-06-28T14:36:59.017Z,1.10
2023-06-28T14:39:26.313Z,1.52
2023-06-28T14:41:53.586Z,1.33
2023-06-28T14:44:21.362Z,1.00
2023-06-28T14:46:48.849Z,1.30
2023-06-28T14:49:16.285Z,1.50
2023-06-28T14:51:43.980Z,1.20
2023-06-28T14:54:11.201Z,1.15
2023-06-28T14:56:38.319Z,1.40
2023-06-28T14:59:05.668Z,1.25
2023-06-28T15:01:34.937Z,2.05
2023-06-28T15:04:02.583Z,1.30
2023-06-28T15:06:29.750Z,1.13
2023-06-28T15:08:58.054Z,1.35
2023-06-28T15:11:25.048Z,1.25
2023-06-28T15:13:52.139Z,1.10
2023-06-28T15:16:19.854Z,1.02
2023-06-28T15:18:47.137Z,1.33
2023-06-28T15:21:14.523Z,1.45
2023-06-28T15:23:42.063Z,1.30
2023-06-28T15:26:09.664Z,1.02
2023-06-28T15:28:37.156Z,0.95
2023-06-28T15:31:04.490Z,1.38
2023-06-28T15:33:32.028Z,1.23
2023-06-28T15:35:59.311Z,1.30
2023-06-28T15:38:27.117Z,1.70
2023-06-28T15:40:54.189Z,1.60
2023-06-28T15:43:22.841Z,2.20
2023-06-28T15:45:50.338Z,1.42
2023-06-28T15:48:17.835Z,2.60
2023-06-28T15:50:45.784Z,1.40
2023-06-28T15:53:13.507Z,2.78
2023-06-28T15:55:42.057Z,2.08
2023-06-28T15:58:09.608Z,1.60
2023-06-28T16:00:38.304Z,1.58
2023-06-28T16:03:05.702Z,1.52
2023-06-28T16:05:33.122Z,1.40
2023-06-28T16:08:00.262Z,1.15
2023-06-28T16:10:29.877Z,1.13
2023-06-28T16:12:57.375Z,2.30
2023-06-28T16:15:25.241Z,2.00
2023-06-28T16:17:54.861Z,1.38
2023-06-28T16:20:23.210Z,1.00
2023-06-28T16:22:50.939Z,1.38
2023-06-28T16:25:18.868Z,1.70
2023-06-28T16:27:47.248Z,1.25
2023-06-28T16:30:14.515Z,1.48
2023-06-28T16:32:41.791Z,1.33
2023-06-28T16:35:09.241Z,1.30
2023-06-28T16:37:36.758Z,2.58
2023-06-28T16:40:04.542Z,1.48
2023-06-28T16:42:31.814Z,1.27
2023-06-28T16:44:59.204Z,1.40
2023-06-28T16:47:26.468Z,1.50
2023-06-28T16:49:54.223Z,1.85
2023-06-28T16:52:21.708Z,1.10
2023-06-28T16:54:48.766Z,1.25
2023-06-28T16:57:15.958Z,2.08
2023-06-28T16:59:45.731Z,1.48
2023-06-28T17:02:17.659Z,1.63
2023-06-28T17:04:44.972Z,1.65
2023-06-28T17:07:12.234Z,1.30
2023-06-28T17:09:42.706Z,1.92
2023-06-28T17:12:09.901Z,1.05
2023-06-28T17:14:37.165Z,1.25
2023-06-28T17:17:06.352Z,1.23
2023-06-28T17:19:35.201Z,1.50
2023-06-28T17:22:03.215Z,1.40
2023-06-28T17:24:30.524Z,1.20
2023-06-28T17:26:58.490Z,1.33
2023-06-28T17:29:26.585Z,1.30
2023-06-28T17:31:54.188Z,1.13
2023-06-28T17:34:22.025Z,1.67
2023-06-28T17:36:49.420Z,1.20
2023-06-28T17:39:19.798Z,1.80
2023-06-28T17:41:47.507Z,1.20
2023-06-28T17:44:15.164Z,1.30
2023-06-28T17:46:43.183Z,1.70
2023-06-28T17:49:10.356Z,1.40
2023-06-28T17:51:37.554Z,1.92
2023-06-28T17:54:06.904Z,2.10
2023-06-28T17:56:34.175Z,1.63
2023-06-28T17:59:02.405Z,1.50
2023-06-28T18:01:29.553Z,1.52
2023-06-28T18:03:56.991Z,2.05
2023-06-28T18:06:25.206Z,2.10
2023-06-28T18:08:52.386Z,2.00
2023-06-28T18:11:19.540Z,1.58
2023-06-28T18:13:46.785Z,1.30
2023-06-28T18:16:14.337Z,1.45
2023-06-28T18:18:41.587Z,1.75
2023-06-28T18:21:09.485Z,2.08
2023-06-28T18:23:37.213Z,1.40
2023-06-28T18:26:04.349Z,1.65
2023-06-28T18:28:31.524Z,1.23
2023-06-28T18:30:58.908Z,1.30
2023-06-28T18:33:26.190Z,1.30
2023-06-28T18:35:53.665Z,1.40
2023-06-28T18:38:21.084Z,1.77
2023-06-28T18:40:48.160Z,1.40
2023-06-28T18:43:15.490Z,1.55
2023-06-28T18:45:48.421Z,1.77
2023-06-28T18:48:18.865Z,1.65
2023-06-28T18:50:56.190Z,1.45
2023-06-28T18:53:23.767Z,1.92
2023-06-28T18:55:51.065Z,1.50
2023-06-28T18:58:30.968Z,2.10
2023-06-28T19:00:59.742Z,1.85
2023-06-28T19:03:28.304Z,1.90
2023-06-28T19:05:56.517Z,1.45
2023-06-28T19:08:23.929Z,1.70
2023-06-28T19:10:52.410Z,1.50
2023-06-28T19:13:21.029Z,1.60
2023-06-28T19:15:51.463Z,1.70
2023-06-28T19:18:18.601Z,1.75
2023-06-28T19:20:46.200Z,2.08
2023-06-28T19:23:15.793Z,2.15
2023-06-28T19:25:44.537Z,1.58
2023-06-28T19:28:12.313Z,1.60
2023-06-28T19:30:40.035Z,1.73
2023-06-28T19:33:08.427Z,1.73
2023-06-28T19:35:37.651Z,1.90
2023-06-28T19:38:04.880Z,1.25
2023-06-28T19:40:32.857Z,1.52
2023-06-28T19:43:00.271Z,1.30
2023-06-28T19:45:27.647Z,1.70
2023-06-28T19:47:55.595Z,1.30
2023-06-28T19:50:22.855Z,1.83
2023-06-28T19:52:52.834Z,2.45
2023-06-28T19:55:20.247Z,4.32
2023-06-28T19:57:47.667Z,2.80
2023-06-28T20:00:16.722Z,2.10
2023-06-28T20:02:45.443Z,2.50
2023-06-28T20:05:13.173Z,2.10
2023-06-28T20:07:42.418Z,2.17
2023-06-28T20:10:10.559Z,2.35
2023-06-28T20:12:37.853Z,2.28
2023-06-28T20:15:05.865Z,2.20
2023-06-28T20:17:33.965Z,3.45
2023-06-28T20:20:01.923Z,2.50
2023-06-28T20:22:31.861Z,2.25
2023-06-28T20:24:59.004Z,2.60
2023-06-28T20:27:29.293Z,2.20
2023-06-28T20:29:56.946Z,2.63
2023-06-28T20:32:24.428Z,2.97
2023-06-28T20:34:57.172Z,2.60
2023-06-28T20:37:26.747Z,2.40
2023-06-28T20:39:54.815Z,2.53
2023-06-28T20:42:25.825Z,3.97
2023-06-28T20:44:56.241Z,2.95
2023-06-28T20:47:27.302Z,3.38
2023-06-28T20:49:54.747Z,3.28
2023-06-28T20:52:22.393Z,3.78
2023-06-28T20:54:51.659Z,3.67
2023-06-28T20:57:19.183Z,4.18
2023-06-28T20:59:46.539Z,4.70
2023-06-28T21:02:13.964Z,3.33
2023-06-28T21:04:41.272Z,5.30
2023-06-28T21:07:08.381Z,4.25
2023-06-28T21:09:36.299Z,3.40
2023-06-28T21:12:03.513Z,3.45
2023-06-28T21:14:30.974Z,3.50
2023-06-28T21:16:58.182Z,3.83
2023-06-28T21:19:25.695Z,3.45
2023-06-28T21:21:52.959Z,3.95
2023-06-28T21:24:20.288Z,4.15
2023-06-28T21:26:47.497Z,3.90
2023-06-28T21:29:14.979Z,3.40
2023-06-28T21:31:43.068Z,3.67
2023-06-28T21:34:10.440Z,3.55
2023-06-28T21:36:37.792Z,3.88
2023-06-28T21:39:05.030Z,3.33
2023-06-28T21:41:32.549Z,3.70
2023-06-28T21:43:59.676Z,3.20
2023-06-28T21:46:27.257Z,3.38
2023-06-28T21:48:54.425Z,3.72
2023-06-28T21:51:21.952Z,3.80
2023-06-28T21:53:49.061Z,3.30
2023-06-28T21:56:16.392Z,3.30
2023-06-28T21:58:44.795Z,2.95
2023-06-28T22:01:12.321Z,3.03
2023-06-28T22:03:41.062Z,3.30
2023-06-28T22:06:08.182Z,3.70
2023-06-28T22:08:36.734Z,3.83
2023-06-28T22:11:04.894Z,3.47
2023-06-28T22:13:35.833Z,3.47
2023-06-28T22:16:03.197Z,4.03
2023-06-28T22:18:30.958Z,4.07
2023-06-28T22:21:01.924Z,4.43
2023-06-28T22:23:29.471Z,4.53
2023-06-28T22:25:56.757Z,5.90
2023-06-28T22:28:23.871Z,6.28
2023-06-28T22:30:51.917Z,4.65
2023-06-28T22:33:19.108Z,4.25
2023-06-28T22:35:46.296Z,4.18
2023-06-28T22:38:13.807Z,4.15
2023-06-28T22:40:40.994Z,4.72
2023-06-28T22:43:08.095Z,4.65
2023-06-28T22:45:35.374Z,4.55
2023-06-28T22:48:03.311Z,4.63
2023-06-28T22:50:30.589Z,5.03
2023-06-28T22:52:57.763Z,5.38
2023-06-28T22:55:26.702Z,5.05
2023-06-28T22:57:53.879Z,5.70
2023-06-28T23:00:21.439Z,4.70
2023-06-28T23:02:49.065Z,5.68
2023-06-28T23:05:16.579Z,4.65
2023-06-28T23:07:44.046Z,4.90
2023-06-28T23:10:12.968Z,5.57
2023-06-28T23:12:40.774Z,5.32
2023-06-28T23:15:11.242Z,4.18
2023-06-28T23:17:38.357Z,4.63
2023-06-28T23:20:06.498Z,4.68
2023-06-28T23:22:34.215Z,4.97
2023-06-28T23:25:02.039Z,4.55
2023-06-28T23:27:30.826Z,5.38
2023-06-28T23:29:58.766Z,4.53
2023-06-28T23:32:30.032Z,5.22
2023-06-28T23:34:58.796Z,4.88
2023-06-28T23:37:26.894Z,4.78
2023-06-28T23:39:53.972Z,5.18
2023-06-28T23:42:21.216Z,4.72
2023-06-28T23:44:49.178Z,4.20
2023-06-28T23:47:16.463Z,4.55
2023-06-28T23:49:43.634Z,5.45
2023-06-28T23:52:10.901Z,4.50
2023-06-28T23:54:39.965Z,4.40
2023-06-28T23:57:07.198Z,3.90
2023-06-28T23:59:34.563Z,4.82
